createdAt,value
2023-08-31T00:00:37.299Z,20.68
2023-08-31T00:01:37.284Z,20.72
2023-08-31T00:02:37.313Z,20.68
2023-08-31T00:03:37.288Z,20.72
2023-08-31T00:04:37.237Z,20.72
2023-08-31T00:05:37.225Z,20.74
2023-08-31T00:06:37.495Z,20.76
2023-08-31T00:07:37.183Z,20.76
2023-08-31T00:08:37.179Z,20.76
2023-08-31T00:09:37.162Z,20.79
2023-08-31T00:10:37.160Z,20.79
2023-08-31T00:11:37.131Z,20.80
2023-08-31T00:12:37.139Z,20.79
2023-08-31T00:13:37.108Z,20.84
2023-08-31T00:14:37.102Z,20.84
2023-08-31T00:15:37.227Z,20.84
2023-08-31T00:16:37.078Z,20.89
2023-08-31T00:17:37.127Z,20.87
2023-08-31T00:18:37.062Z,20.91
2023-08-31T00:19:37.025Z,20.90
2023-08-31T00:20:37.015Z,20.91
2023-08-31T00:21:37.909Z,20.91
2023-08-31T00:22:36.992Z,20.96
2023-08-31T00:23:36.975Z,20.95
2023-08-31T00:24:36.975Z,20.98
2023-08-31T00:25:36.935Z,20.98
2023-08-31T00:26:36.948Z,20.98
2023-08-31T00:27:36.918Z,21.01
2023-08-31T00:28:36.912Z,20.99
2023-08-31T00:29:36.884Z,21.04
2023-08-31T00:30:36.953Z,21.02
2023-08-31T00:31:36.857Z,21.04
2023-08-31T00:32:36.877Z,21.04
2023-08-31T00:33:36.825Z,21.05
2023-08-31T00:34:36.835Z,21.05
2023-08-31T00:35:36.813Z,21.08
2023-08-31T00:36:36.806Z,21.08
2023-08-31T00:37:36.785Z,21.08
2023-08-31T00:38:36.769Z,21.09
2023-08-31T00:39:36.755Z,21.08
2023-08-31T00:40:36.737Z,21.11
2023-08-31T00:41:36.740Z,21.08
2023-08-31T00:42:36.790Z,21.11
2023-08-31T00:43:36.700Z,21.08
2023-08-31T00:44:36.687Z,21.11
2023-08-31T00:45:36.666Z,21.11
2023-08-31T00:46:36.701Z,21.13
2023-08-31T00:47:36.675Z,21.13
2023-08-31T00:48:36.673Z,21.09
2023-08-31T00:49:36.601Z,21.11
2023-08-31T00:50:36.609Z,21.11
2023-08-31T00:51:36.588Z,21.09
2023-08-31T00:52:36.577Z,21.11
2023-08-31T00:53:36.583Z,21.13
2023-08-31T00:54:36.548Z,21.13
2023-08-31T00:55:36.549Z,21.13
2023-08-31T00:56:36.547Z,21.16
2023-08-31T00:57:36.505Z,21.14
2023-08-31T00:58:36.503Z,21.11
2023-08-31T00:59:36.487Z,21.19
2023-08-31T01:00:36.469Z,21.14
2023-08-31T01:01:36.487Z,21.16
2023-08-31T01:02:40.606Z,21.19
2023-08-31T01:03:36.530Z,21.17
2023-08-31T01:04:36.411Z,21.17
2023-08-31T01:05:36.421Z,21.17
2023-08-31T01:06:36.400Z,21.21
2023-08-31T01:07:36.372Z,21.20
2023-08-31T01:08:36.405Z,21.20
2023-08-31T01:09:36.350Z,21.21
2023-08-31T01:10:36.363Z,21.23
2023-08-31T01:11:36.347Z,21.23
2023-08-31T01:12:36.311Z,21.24
2023-08-31T01:13:36.298Z,21.23
2023-08-31T01:14:36.274Z,21.24
2023-08-31T01:15:36.250Z,21.24
2023-08-31T01:16:36.298Z,21.24
2023-08-31T01:17:36.328Z,21.24
2023-08-31T01:18:36.232Z,21.24
2023-08-31T01:19:36.198Z,21.24
2023-08-31T01:20:36.197Z,21.27
2023-08-31T01:21:36.192Z,21.26
2023-08-31T01:22:36.188Z,21.26
2023-08-31T01:23:36.204Z,21.23
2023-08-31T01:24:36.147Z,21.21
2023-08-31T01:25:36.116Z,21.23
2023-08-31T01:26:36.135Z,21.24
2023-08-31T01:27:36.108Z,21.23
2023-08-31T01:28:36.094Z,21.23
2023-08-31T01:29:36.103Z,21.24
2023-08-31T01:30:36.097Z,21.23
2023-08-31T01:31:36.091Z,21.23
2023-08-31T01:32:36.068Z,21.23
2023-08-31T01:33:36.022Z,21.20
2023-08-31T01:34:36.047Z,21.20
2023-08-31T01:35:36.033Z,21.17
2023-08-31T01:36:36.008Z,21.17
2023-08-31T01:37:35.977Z,21.17
2023-08-31T01:38:35.947Z,21.17
2023-08-31T01:39:35.954Z,21.16
2023-08-31T01:40:35.955Z,21.17
2023-08-31T01:41:35.904Z,21.16
2023-08-31T01:42:35.901Z,21.16
2023-08-31T01:43:35.871Z,21.16
2023-08-31T01:44:35.877Z,21.13
2023-08-31T01:45:35.859Z,21.13
2023-08-31T01:46:35.896Z,21.09
2023-08-31T01:47:35.852Z,21.09
2023-08-31T01:48:35.811Z,21.09
2023-08-31T01:49:35.795Z,21.08
2023-08-31T01:50:35.787Z,21.05
2023-08-31T01:51:35.757Z,21.08
2023-08-31T01:52:35.784Z,21.05
2023-08-31T01:53:35.751Z,21.05
2023-08-31T01:54:35.730Z,21.06
2023-08-31T01:55:35.707Z,21.06
2023-08-31T01:56:35.706Z,21.04
2023-08-31T01:57:35.684Z,21.05
2023-08-31T01:58:35.701Z,21.04
2023-08-31T01:59:35.787Z,21.02
2023-08-31T02:00:35.648Z,20.98
2023-08-31T02:01:35.686Z,20.98
2023-08-31T02:02:35.722Z,20.96
2023-08-31T02:03:35.665Z,20.91
2023-08-31T02:04:35.609Z,20.90
2023-08-31T02:05:35.589Z,20.90
2023-08-31T02:06:35.574Z,20.86
2023-08-31T02:07:35.565Z,20.80
2023-08-31T02:08:35.532Z,20.81
2023-08-31T02:09:35.704Z,20.79
2023-08-31T02:10:36.370Z,20.77
2023-08-31T02:11:35.495Z,20.74
2023-08-31T02:12:35.492Z,20.76
2023-08-31T02:13:35.474Z,20.74
2023-08-31T02:14:35.469Z,20.74
2023-08-31T02:15:35.535Z,20.74
2023-08-31T02:16:35.452Z,20.69
2023-08-31T02:17:35.478Z,20.69
2023-08-31T02:18:35.415Z,20.66
2023-08-31T02:19:35.387Z,20.68
2023-08-31T02:20:35.371Z,20.66
2023-08-31T02:21:36.369Z,20.65
2023-08-31T02:22:35.352Z,20.66
2023-08-31T02:23:35.335Z,20.65
2023-08-31T02:24:35.314Z,20.64
2023-08-31T02:25:35.304Z,20.62
2023-08-31T02:26:35.281Z,20.59
2023-08-31T02:27:35.335Z,20.58
2023-08-31T02:28:35.264Z,20.59
2023-08-31T02:29:35.261Z,20.56
2023-08-31T02:30:35.229Z,20.56
2023-08-31T02:31:35.277Z,20.56
2023-08-31T02:32:35.289Z,20.53
2023-08-31T02:33:35.221Z,20.51
2023-08-31T02:34:35.189Z,20.54
2023-08-31T02:35:35.196Z,20.50
2023-08-31T02:36:35.152Z,20.47
2023-08-31T02:37:35.180Z,20.46
2023-08-31T02:38:35.125Z,20.47
2023-08-31T02:39:35.159Z,20.46
2023-08-31T02:40:35.102Z,20.46
2023-08-31T02:41:35.105Z,20.41
2023-08-31T02:42:35.080Z,20.41
2023-08-31T02:43:35.071Z,20.38
2023-08-31T02:44:35.052Z,20.35
2023-08-31T02:45:35.051Z,20.35
2023-08-31T02:46:35.057Z,20.34
2023-08-31T02:47:35.089Z,20.38
2023-08-31T02:48:35.125Z,20.33
2023-08-31T02:49:34.981Z,20.31
2023-08-31T02:50:34.972Z,20.31
2023-08-31T02:51:34.968Z,20.28
2023-08-31T02:52:34.934Z,20.28
2023-08-31T02:53:34.934Z,20.28
2023-08-31T02:54:34.915Z,20.30
2023-08-31T02:55:34.926Z,20.27
2023-08-31T02:56:34.894Z,20.27
2023-08-31T02:57:34.875Z,20.25
2023-08-31T02:58:34.860Z,20.27
2023-08-31T02:59:34.845Z,20.25
2023-08-31T03:00:34.930Z,20.25
2023-08-31T03:01:34.877Z,20.25
2023-08-31T03:02:34.872Z,20.28
2023-08-31T03:03:34.791Z,20.27
2023-08-31T03:04:34.778Z,20.25
2023-08-31T03:05:34.764Z,20.28
2023-08-31T03:06:34.751Z,20.28
2023-08-31T03:07:34.739Z,20.24
2023-08-31T03:08:35.379Z,20.28
2023-08-31T03:09:34.714Z,20.28
2023-08-31T03:10:34.686Z,20.33
2023-08-31T03:11:34.683Z,20.31
2023-08-31T03:12:34.652Z,20.33
2023-08-31T03:13:34.659Z,20.35
2023-08-31T03:14:34.652Z,20.34
2023-08-31T03:15:34.621Z,20.35
2023-08-31T03:16:34.628Z,20.38
2023-08-31T03:17:34.612Z,20.35
2023-08-31T03:18:34.599Z,20.38
2023-08-31T03:19:34.574Z,20.34
2023-08-31T03:20:34.572Z,20.35
2023-08-31T03:21:34.559Z,20.38
2023-08-31T03:22:34.543Z,20.38
2023-08-31T03:23:34.521Z,20.42
2023-08-31T03:24:34.508Z,20.41
2023-08-31T03:25:34.512Z,20.39
2023-08-31T03:26:34.526Z,20.35
2023-08-31T03:27:34.478Z,20.35
2023-08-31T03:28:34.478Z,20.34
2023-08-31T03:29:34.436Z,20.31
2023-08-31T03:30:34.466Z,20.34
2023-08-31T03:31:34.436Z,20.31
2023-08-31T03:32:34.466Z,20.31
2023-08-31T03:33:34.382Z,20.28
2023-08-31T03:34:34.393Z,20.25
2023-08-31T03:35:34.380Z,20.25
2023-08-31T03:36:34.439Z,20.23
2023-08-31T03:37:34.332Z,20.21
2023-08-31T03:38:34.361Z,20.21
2023-08-31T03:39:34.358Z,20.20
2023-08-31T03:40:34.289Z,20.20
2023-08-31T03:41:34.273Z,20.16
2023-08-31T03:42:34.265Z,20.13
2023-08-31T03:43:34.246Z,20.13
2023-08-31T03:44:34.241Z,20.12
2023-08-31T03:45:34.224Z,20.12
2023-08-31T03:46:34.235Z,20.12
2023-08-31T03:47:34.234Z,20.09
2023-08-31T03:48:34.203Z,20.13
2023-08-31T03:49:34.187Z,20.12
2023-08-31T03:50:34.161Z,20.10
2023-08-31T03:51:34.140Z,20.09
2023-08-31T03:52:34.117Z,20.10
2023-08-31T03:53:34.125Z,20.08
2023-08-31T03:54:34.086Z,20.05
2023-08-31T03:55:34.098Z,20.06
2023-08-31T03:56:34.062Z,20.03
2023-08-31T03:57:34.079Z,20.02
2023-08-31T03:58:34.044Z,20.00
2023-08-31T03:59:34.840Z,20.00
2023-08-31T04:00:34.008Z,20.00
2023-08-31T04:01:34.088Z,19.98
2023-08-31T04:02:34.003Z,19.98
2023-08-31T04:03:34.080Z,19.98
2023-08-31T04:04:33.966Z,19.97
2023-08-31T04:05:33.950Z,19.95
2023-08-31T04:06:33.934Z,19.97
2023-08-31T04:07:33.937Z,19.94
2023-08-31T04:08:34.836Z,19.93
2023-08-31T04:09:33.906Z,19.90
2023-08-31T04:10:33.889Z,19.86
2023-08-31T04:11:33.880Z,19.80
2023-08-31T04:12:33.863Z,19.80
2023-08-31T04:13:33.859Z,19.78
2023-08-31T04:14:33.824Z,19.79
2023-08-31T04:15:33.816Z,19.78
2023-08-31T04:16:33.794Z,19.76
2023-08-31T04:17:33.896Z,19.75
2023-08-31T04:18:33.801Z,19.76
2023-08-31T04:19:33.799Z,19.76
2023-08-31T04:20:33.751Z,19.75
2023-08-31T04:21:33.733Z,19.76
2023-08-31T04:22:33.712Z,19.75
2023-08-31T04:23:33.723Z,19.75
2023-08-31T04:24:33.706Z,19.72
2023-08-31T04:25:33.696Z,19.72
2023-08-31T04:26:33.664Z,19.70
2023-08-31T04:27:33.650Z,19.69
2023-08-31T04:28:33.634Z,19.72
2023-08-31T04:29:33.626Z,19.70
2023-08-31T04:30:33.618Z,19.73
2023-08-31T04:31:33.626Z,19.70
2023-08-31T04:32:33.601Z,19.72
2023-08-31T04:33:33.591Z,19.70
2023-08-31T04:34:33.554Z,19.69
2023-08-31T04:35:34.329Z,19.72
2023-08-31T04:36:33.548Z,19.70
2023-08-31T04:37:33.526Z,19.72
2023-08-31T04:38:33.509Z,19.72
2023-08-31T04:39:33.498Z,19.75
2023-08-31T04:40:33.467Z,19.75
2023-08-31T04:41:33.468Z,19.75
2023-08-31T04:42:34.002Z,19.78
2023-08-31T04:43:33.439Z,19.76
2023-08-31T04:44:33.453Z,19.80
2023-08-31T04:45:33.487Z,19.84
2023-08-31T04:46:33.390Z,19.87
2023-08-31T04:47:33.414Z,19.90
2023-08-31T04:48:34.333Z,19.91
2023-08-31T04:49:33.357Z,19.91
2023-08-31T04:50:33.332Z,19.93
2023-08-31T04:51:33.368Z,19.94
2023-08-31T04:52:33.313Z,19.94
2023-08-31T04:53:33.328Z,19.95
2023-08-31T04:54:33.316Z,19.97
2023-08-31T04:55:33.276Z,19.97
2023-08-31T04:56:33.284Z,19.98
2023-08-31T04:57:33.257Z,20.05
2023-08-31T04:58:33.232Z,20.05
2023-08-31T04:59:33.235Z,20.06
2023-08-31T05:00:33.222Z,20.09
2023-08-31T05:01:33.264Z,20.13
2023-08-31T05:02:33.173Z,20.15
2023-08-31T05:03:33.168Z,20.18
2023-08-31T05:04:33.149Z,20.23
2023-08-31T05:05:34.792Z,20.25
2023-08-31T05:06:33.562Z,20.28
2023-08-31T05:07:33.120Z,20.30
2023-08-31T05:08:33.090Z,20.31
2023-08-31T05:09:33.103Z,20.34
2023-08-31T05:10:33.071Z,20.35
2023-08-31T05:11:33.074Z,20.41
2023-08-31T05:12:33.072Z,20.43
2023-08-31T05:13:33.085Z,20.50
2023-08-31T05:14:33.015Z,20.58
2023-08-31T05:15:33.026Z,20.61
2023-08-31T05:16:33.021Z,20.66
2023-08-31T05:17:33.019Z,20.71
2023-08-31T05:18:33.006Z,20.76
2023-08-31T05:19:32.964Z,20.83
2023-08-31T05:20:32.928Z,20.81
2023-08-31T05:21:32.940Z,20.87
2023-08-31T05:22:32.910Z,20.93
2023-08-31T05:23:32.901Z,20.96
2023-08-31T05:24:32.916Z,21.02
2023-08-31T05:25:32.871Z,21.06
2023-08-31T05:26:32.861Z,21.13
2023-08-31T05:27:32.857Z,21.16
2023-08-31T05:28:32.826Z,21.23
2023-08-31T05:29:33.076Z,21.27
2023-08-31T05:30:32.791Z,21.29
2023-08-31T05:31:32.792Z,21.34
2023-08-31T05:32:32.810Z,21.38
2023-08-31T05:33:32.771Z,21.45
2023-08-31T05:34:33.615Z,21.48
2023-08-31T05:35:32.820Z,21.51
2023-08-31T05:36:32.732Z,21.57
2023-08-31T05:37:32.718Z,21.61
2023-08-31T05:38:32.691Z,21.66
2023-08-31T05:39:32.684Z,21.76
2023-08-31T05:40:32.651Z,21.78
2023-08-31T05:41:32.684Z,21.83
2023-08-31T05:42:32.648Z,21.90
2023-08-31T05:43:32.629Z,21.95
2023-08-31T05:44:32.611Z,21.99
2023-08-31T05:45:32.610Z,22.07
2023-08-31T05:46:32.612Z,22.14
2023-08-31T05:47:32.652Z,22.17
2023-08-31T05:48:32.685Z,22.23
2023-08-31T05:49:32.559Z,22.27
2023-08-31T05:50:32.527Z,22.35
2023-08-31T05:51:32.524Z,22.39
2023-08-31T05:52:32.495Z,22.53
2023-08-31T05:53:32.538Z,22.59
2023-08-31T05:54:32.486Z,22.60
2023-08-31T05:55:32.476Z,22.69
2023-08-31T05:56:32.442Z,22.74
2023-08-31T05:57:32.453Z,22.83
2023-08-31T05:58:32.439Z,22.84
2023-08-31T05:59:32.433Z,22.92
2023-08-31T06:00:32.417Z,22.93
2023-08-31T06:01:32.405Z,23.02
2023-08-31T06:02:32.395Z,23.05
2023-08-31T06:03:32.365Z,23.12
2023-08-31T06:04:32.408Z,23.17
2023-08-31T06:05:32.355Z,23.24
2023-08-31T06:06:32.313Z,23.32
2023-08-31T06:07:32.306Z,23.40
2023-08-31T06:08:32.289Z,23.45
2023-08-31T06:09:32.288Z,23.47
2023-08-31T06:10:32.262Z,23.50
2023-08-31T06:11:32.283Z,23.52
2023-08-31T06:12:32.220Z,23.61
2023-08-31T06:13:32.225Z,23.62
2023-08-31T06:14:32.229Z,23.70
2023-08-31T06:15:32.191Z,23.68
2023-08-31T06:16:32.288Z,23.76
2023-08-31T06:17:32.226Z,23.80
2023-08-31T06:18:32.160Z,23.83
2023-08-31T06:19:32.128Z,23.89
2023-08-31T06:20:32.138Z,23.98
2023-08-31T06:21:32.130Z,24.05
2023-08-31T06:22:32.131Z,24.12
2023-08-31T06:23:32.111Z,24.19
2023-08-31T06:24:32.124Z,24.24
2023-08-31T06:25:32.042Z,24.32
2023-08-31T06:26:32.044Z,24.39
2023-08-31T06:27:32.030Z,24.45
2023-08-31T06:28:32.081Z,24.54
2023-08-31T06:29:32.012Z,24.63
2023-08-31T06:30:31.996Z,24.68
2023-08-31T06:31:31.995Z,24.75
2023-08-31T06:32:31.992Z,24.80
2023-08-31T06:33:31.954Z,24.85
2023-08-31T06:34:32.285Z,24.94
2023-08-31T06:35:31.913Z,24.98
2023-08-31T06:36:31.905Z,25.10
2023-08-31T06:37:31.885Z,25.19
2023-08-31T06:38:31.882Z,25.35
2023-08-31T06:39:31.877Z,25.50
2023-08-31T06:40:31.874Z,25.62
2023-08-31T06:41:31.841Z,25.72
2023-08-31T06:42:31.828Z,25.72
2023-08-31T06:43:31.805Z,25.75
2023-08-31T06:44:31.820Z,25.80
2023-08-31T06:45:31.796Z,25.93
2023-08-31T06:46:31.818Z,26.04
2023-08-31T06:47:31.777Z,26.08
2023-08-31T06:48:31.741Z,26.09
2023-08-31T06:49:31.741Z,26.12
2023-08-31T06:50:31.718Z,26.15
2023-08-31T06:51:31.697Z,26.20
2023-08-31T06:52:32.721Z,26.20
2023-08-31T06:53:31.687Z,26.28
2023-08-31T06:54:31.674Z,26.32
2023-08-31T06:55:31.644Z,26.43
2023-08-31T06:56:31.643Z,26.50
2023-08-31T06:57:31.659Z,26.67
2023-08-31T06:58:31.635Z,26.80
2023-08-31T06:59:31.603Z,26.89
2023-08-31T07:00:31.586Z,27.02
2023-08-31T07:01:31.565Z,27.14
2023-08-31T07:02:32.370Z,27.23
2023-08-31T07:03:31.652Z,27.26
2023-08-31T07:04:31.566Z,27.31
2023-08-31T07:05:31.524Z,27.35
2023-08-31T07:06:31.514Z,27.32
2023-08-31T07:07:31.489Z,27.38
2023-08-31T07:08:31.471Z,27.42
2023-08-31T07:09:31.456Z,27.53
2023-08-31T07:10:31.484Z,27.66
2023-08-31T07:11:31.434Z,27.74
2023-08-31T07:12:31.430Z,27.88
2023-08-31T07:13:31.407Z,27.96
2023-08-31T07:14:31.737Z,28.13
2023-08-31T07:15:32.817Z,28.26
2023-08-31T07:16:31.405Z,28.53
2023-08-31T07:17:31.347Z,28.88
2023-08-31T07:18:31.358Z,29.13
2023-08-31T07:19:31.334Z,29.29
2023-08-31T07:20:31.342Z,29.40
2023-08-31T07:21:31.468Z,29.37
2023-08-31T07:22:31.288Z,29.35
2023-08-31T07:23:31.288Z,29.50
2023-08-31T07:24:31.272Z,29.78
2023-08-31T07:25:31.242Z,30.18
2023-08-31T07:26:31.272Z,30.30
2023-08-31T07:27:31.258Z,30.38
2023-08-31T07:28:31.227Z,30.50
2023-08-31T07:29:31.197Z,30.71
2023-08-31T07:30:31.185Z,30.94
2023-08-31T07:31:31.189Z,31.26
2023-08-31T07:32:31.171Z,31.68
2023-08-31T07:33:31.721Z,32.76
2023-08-31T07:34:31.162Z,34.80
2023-08-31T07:35:31.107Z,36.95
2023-08-31T07:36:31.117Z,38.78
2023-08-31T07:37:31.099Z,40.23
2023-08-31T07:38:31.080Z,41.41
2023-08-31T07:39:31.148Z,42.49
2023-08-31T07:40:31.060Z,43.42
2023-08-31T07:41:31.025Z,44.29
2023-08-31T07:42:31.034Z,45.12
2023-08-31T07:43:31.025Z,45.81
2023-08-31T07:44:31.362Z,46.54
2023-08-31T07:45:31.004Z,47.18
2023-08-31T07:46:31.018Z,47.83
2023-08-31T07:47:32.941Z,48.34
2023-08-31T07:48:30.938Z,48.84
2023-08-31T07:49:30.926Z,49.42
2023-08-31T07:50:30.910Z,49.92
2023-08-31T07:51:30.931Z,50.37
2023-08-31T07:52:30.906Z,50.77
2023-08-31T07:53:31.004Z,51.37
2023-08-31T07:54:30.861Z,51.89
2023-08-31T07:55:30.848Z,52.39
2023-08-31T07:56:30.833Z,52.85
2023-08-31T07:57:31.553Z,53.34
2023-08-31T07:58:30.811Z,53.79
2023-08-31T07:59:30.803Z,54.23
2023-08-31T08:00:30.807Z,54.56
2023-08-31T08:01:30.849Z,54.89
2023-08-31T08:02:30.775Z,55.19
2023-08-31T08:03:30.865Z,55.16
2023-08-31T08:04:30.737Z,54.91
2023-08-31T08:05:30.728Z,54.73
2023-08-31T08:06:30.716Z,55.32
2023-08-31T08:07:30.710Z,55.61
2023-08-31T08:08:31.277Z,55.48
2023-08-31T08:09:30.658Z,54.88
2023-08-31T08:10:30.660Z,53.46
2023-08-31T08:11:30.636Z,52.99
2023-08-31T08:12:30.686Z,53.64
2023-08-31T08:13:30.612Z,54.52
2023-08-31T08:14:31.743Z,55.27
2023-08-31T08:15:30.633Z,55.84
2023-08-31T08:16:30.622Z,56.25
2023-08-31T08:17:30.591Z,56.60
2023-08-31T08:18:30.554Z,56.86
2023-08-31T08:19:30.563Z,57.16
2023-08-31T08:20:30.607Z,57.42
2023-08-31T08:21:30.583Z,57.75
2023-08-31T08:22:30.541Z,57.97
2023-08-31T08:23:30.512Z,57.58
2023-08-31T08:24:30.515Z,57.08
2023-08-31T08:25:30.466Z,57.71
2023-08-31T08:26:30.489Z,58.48
2023-08-31T08:27:30.436Z,59.19
2023-08-31T08:28:30.434Z,59.82
2023-08-31T08:29:30.439Z,60.33
2023-08-31T08:30:30.470Z,60.73
2023-08-31T08:31:30.462Z,60.52
2023-08-31T08:32:30.420Z,60.49
2023-08-31T08:33:30.399Z,61.32
2023-08-31T08:34:30.403Z,60.72
2023-08-31T08:35:30.328Z,57.58
2023-08-31T08:36:30.382Z,55.15
2023-08-31T08:37:31.269Z,53.19
2023-08-31T08:38:31.282Z,54.42
2023-08-31T08:39:30.296Z,56.57
2023-08-31T08:40:30.278Z,58.00
2023-08-31T08:41:30.338Z,59.22
2023-08-31T08:42:30.283Z,60.10
2023-08-31T08:43:30.236Z,60.40
2023-08-31T08:44:31.152Z,60.56
2023-08-31T08:45:30.209Z,61.36
2023-08-31T08:46:30.231Z,62.10
2023-08-31T08:47:30.197Z,61.62
2023-08-31T08:48:30.197Z,58.29
2023-08-31T08:49:30.195Z,56.15
2023-08-31T08:50:30.192Z,53.77
2023-08-31T08:51:30.133Z,52.15
2023-08-31T08:52:30.160Z,51.07
2023-08-31T08:53:30.136Z,50.20
2023-08-31T08:54:30.143Z,48.66
2023-08-31T08:55:30.090Z,47.36
2023-08-31T08:56:30.107Z,46.37
2023-08-31T08:57:30.078Z,45.80
2023-08-31T08:58:30.087Z,45.21
2023-08-31T08:59:30.039Z,47.50
2023-08-31T09:00:30.069Z,50.78
2023-08-31T09:01:30.073Z,49.86
2023-08-31T09:02:30.106Z,48.33
2023-08-31T09:03:30.081Z,46.85
2023-08-31T09:04:30.066Z,45.56
2023-08-31T09:05:30.002Z,44.45
2023-08-31T09:06:29.994Z,43.63
2023-08-31T09:07:29.957Z,42.97
2023-08-31T09:08:29.937Z,42.51
2023-08-31T09:09:29.903Z,42.32
2023-08-31T09:10:29.939Z,42.94
2023-08-31T09:11:29.926Z,45.13
2023-08-31T09:12:29.871Z,47.80
2023-08-31T09:13:29.890Z,50.93
2023-08-31T09:14:30.758Z,52.91
2023-08-31T09:15:29.823Z,53.27
2023-08-31T09:16:30.152Z,53.04
2023-08-31T09:17:29.906Z,53.79
2023-08-31T09:18:29.930Z,54.00
2023-08-31T09:19:29.818Z,53.04
2023-08-31T09:20:29.782Z,51.32
2023-08-31T09:21:29.787Z,52.88
2023-08-31T09:22:29.757Z,55.55
2023-08-31T09:23:29.742Z,57.38
2023-08-31T09:24:29.735Z,58.51
2023-08-31T09:25:30.115Z,59.38
2023-08-31T09:26:29.694Z,56.16
2023-08-31T09:27:29.689Z,53.22
2023-08-31T09:28:29.739Z,50.94
2023-08-31T09:29:29.652Z,49.09
2023-08-31T09:30:29.692Z,47.64
2023-08-31T09:31:29.683Z,46.37
2023-08-31T09:32:29.632Z,45.18
2023-08-31T09:33:29.607Z,44.17
2023-08-31T09:34:29.593Z,43.23
2023-08-31T09:35:29.604Z,42.44
2023-08-31T09:36:30.258Z,41.74
2023-08-31T09:37:29.578Z,41.13
2023-08-31T09:38:29.541Z,40.62
2023-08-31T09:39:29.518Z,40.68
2023-08-31T09:40:29.572Z,40.14
2023-08-31T09:41:29.503Z,39.61
2023-08-31T09:42:29.502Z,39.27
2023-08-31T09:43:29.477Z,39.08
2023-08-31T09:44:30.540Z,39.20
2023-08-31T09:45:43.373Z,39.88
2023-08-31T09:46:29.484Z,41.33
2023-08-31T09:47:29.520Z,43.02
2023-08-31T09:48:29.547Z,42.58
2023-08-31T09:49:29.434Z,41.77
2023-08-31T09:50:29.405Z,41.28
2023-08-31T09:51:29.407Z,41.77
2023-08-31T09:52:29.404Z,41.41
2023-08-31T09:53:29.670Z,41.27
2023-08-31T09:54:29.379Z,42.94
2023-08-31T09:55:29.782Z,42.91
2023-08-31T09:56:30.253Z,42.22
2023-08-31T09:57:43.735Z,41.37
2023-08-31T09:58:30.249Z,40.71
2023-08-31T09:59:29.328Z,40.18
2023-08-31T10:00:29.693Z,39.80
2023-08-31T10:01:30.237Z,39.37
2023-08-31T10:02:29.332Z,38.92
2023-08-31T10:03:29.348Z,38.55
2023-08-31T10:04:29.753Z,38.30
2023-08-31T10:05:30.968Z,38.48
2023-08-31T10:06:29.805Z,39.06
2023-08-31T10:07:29.194Z,40.12
2023-08-31T10:08:29.748Z,40.24
2023-08-31T10:09:29.141Z,39.78
2023-08-31T10:10:29.127Z,39.89
2023-08-31T10:11:29.493Z,39.96
2023-08-31T10:12:29.144Z,39.49
2023-08-31T10:13:29.086Z,39.20
2023-08-31T10:14:29.729Z,39.20
2023-08-31T10:15:29.085Z,39.30
2023-08-31T10:16:29.081Z,39.62
2023-08-31T10:17:29.089Z,41.09
2023-08-31T10:18:29.038Z,46.22
2023-08-31T10:19:29.002Z,46.73
2023-08-31T10:20:29.002Z,48.05
2023-08-31T10:21:28.994Z,47.20
2023-08-31T10:22:29.043Z,49.66
2023-08-31T10:23:28.953Z,53.19
2023-08-31T10:24:29.749Z,55.65
2023-08-31T10:25:28.964Z,57.49
2023-08-31T10:26:28.954Z,56.86
2023-08-31T10:27:28.900Z,58.77
2023-08-31T10:28:28.889Z,60.31
2023-08-31T10:29:28.940Z,61.33
2023-08-31T10:30:28.898Z,61.25
2023-08-31T10:31:28.861Z,60.97
2023-08-31T10:32:28.844Z,62.16
2023-08-31T10:33:28.917Z,63.06
2023-08-31T10:34:28.852Z,63.92
2023-08-31T10:35:28.893Z,64.49
2023-08-31T10:36:28.942Z,65.39
2023-08-31T10:37:28.843Z,64.76
2023-08-31T10:38:28.831Z,65.47
2023-08-31T10:39:28.838Z,65.90
2023-08-31T10:40:28.737Z,66.11
2023-08-31T10:41:28.863Z,66.45
2023-08-31T10:42:28.745Z,66.95
2023-08-31T10:43:38.076Z,67.08
2023-08-31T10:44:29.323Z,65.86
2023-08-31T10:45:28.690Z,64.83
2023-08-31T10:46:28.792Z,65.27
2023-08-31T10:47:28.714Z,65.82
2023-08-31T10:48:28.699Z,66.37
2023-08-31T10:49:28.645Z,66.79
2023-08-31T10:50:28.633Z,67.59
2023-08-31T10:51:28.621Z,68.25
2023-08-31T10:52:41.747Z,68.69
2023-08-31T10:53:28.589Z,68.99
2023-08-31T10:54:28.628Z,69.26
2023-08-31T10:55:29.248Z,69.51
2023-08-31T10:56:28.577Z,69.49
2023-08-31T10:57:28.549Z,69.54
2023-08-31T10:58:28.522Z,69.12
2023-08-31T10:59:28.584Z,68.24
2023-08-31T11:00:28.535Z,65.09
2023-08-31T11:01:28.562Z,61.78
2023-08-31T11:02:28.506Z,60.47
2023-08-31T11:03:28.585Z,58.31
2023-08-31T11:04:28.652Z,56.92
2023-08-31T11:05:28.469Z,58.79
2023-08-31T11:06:28.485Z,60.45
2023-08-31T11:07:28.430Z,62.01
2023-08-31T11:08:29.238Z,63.22
2023-08-31T11:09:29.243Z,64.33
2023-08-31T11:10:28.502Z,63.90
2023-08-31T11:11:28.424Z,60.23
2023-08-31T11:12:28.357Z,57.58
2023-08-31T11:13:28.362Z,58.13
2023-08-31T11:14:29.178Z,55.95
2023-08-31T11:15:28.378Z,57.15
2023-08-31T11:16:28.355Z,59.67
2023-08-31T11:17:30.250Z,60.56
2023-08-31T11:18:28.306Z,62.19
2023-08-31T11:19:28.338Z,63.44
2023-08-31T11:20:28.274Z,64.40
2023-08-31T11:21:28.257Z,65.15
2023-08-31T11:22:28.282Z,65.70
2023-08-31T11:23:28.279Z,65.50
2023-08-31T11:24:28.740Z,62.77
2023-08-31T11:25:28.215Z,59.66
2023-08-31T11:26:28.734Z,60.04
2023-08-31T11:27:28.191Z,61.42
2023-08-31T11:28:28.736Z,60.95
2023-08-31T11:29:28.475Z,62.23
2023-08-31T11:30:28.196Z,61.15
2023-08-31T11:31:28.204Z,61.08
2023-08-31T11:32:28.192Z,61.82
2023-08-31T11:33:28.309Z,59.71
2023-08-31T11:34:28.738Z,60.62
2023-08-31T11:35:28.740Z,59.63
2023-08-31T11:36:28.745Z,57.55
2023-08-31T11:37:28.254Z,56.81
2023-08-31T11:38:28.045Z,58.32
2023-08-31T11:39:28.070Z,56.88
2023-08-31T11:40:28.028Z,55.98
2023-08-31T11:41:28.034Z,54.27
2023-08-31T11:42:28.009Z,52.76
2023-08-31T11:43:27.999Z,51.63
2023-08-31T11:44:28.270Z,50.94
2023-08-31T11:45:28.834Z,49.79
2023-08-31T11:46:28.815Z,48.77
2023-08-31T11:47:27.972Z,48.10
2023-08-31T11:48:28.842Z,47.83
2023-08-31T11:49:27.948Z,47.55
2023-08-31T11:50:27.930Z,47.25
2023-08-31T11:51:27.905Z,47.13
2023-08-31T11:52:28.029Z,47.79
2023-08-31T11:53:27.892Z,47.90
2023-08-31T11:54:27.875Z,47.86
2023-08-31T11:55:28.743Z,47.65
2023-08-31T11:56:27.823Z,48.06
2023-08-31T11:57:27.838Z,49.70
2023-08-31T11:58:27.872Z,49.85
2023-08-31T11:59:27.814Z,49.64
2023-08-31T12:00:27.789Z,49.10
2023-08-31T12:01:27.825Z,48.58
2023-08-31T12:02:27.789Z,48.15
2023-08-31T12:03:39.842Z,47.64
2023-08-31T12:04:27.878Z,47.07
2023-08-31T12:05:27.737Z,46.64
2023-08-31T12:06:27.716Z,46.39
2023-08-31T12:07:27.700Z,46.11
2023-08-31T12:08:28.247Z,45.77
2023-08-31T12:09:27.678Z,45.32
2023-08-31T12:10:28.383Z,44.90
2023-08-31T12:11:27.664Z,44.35
2023-08-31T12:12:27.631Z,43.87
2023-08-31T12:13:27.630Z,43.49
2023-08-31T12:14:27.911Z,43.32
2023-08-31T12:15:27.637Z,43.10
2023-08-31T12:16:27.656Z,42.87
2023-08-31T12:17:28.236Z,42.60
2023-08-31T12:18:27.556Z,42.25
2023-08-31T12:19:27.565Z,41.78
2023-08-31T12:20:27.657Z,41.46
2023-08-31T12:21:27.539Z,41.36
2023-08-31T12:22:27.549Z,41.31
2023-08-31T12:23:27.501Z,41.24
2023-08-31T12:24:27.507Z,41.18
2023-08-31T12:25:27.492Z,41.08
2023-08-31T12:26:28.230Z,40.90
2023-08-31T12:27:27.497Z,40.74
2023-08-31T12:28:27.442Z,40.49
2023-08-31T12:29:27.468Z,40.30
2023-08-31T12:30:27.418Z,40.12
2023-08-31T12:31:27.466Z,39.90
2023-08-31T12:32:27.397Z,39.81
2023-08-31T12:33:27.386Z,39.78
2023-08-31T12:34:27.407Z,39.76
2023-08-31T12:35:27.346Z,39.67
2023-08-31T12:36:27.329Z,39.42
2023-08-31T12:37:27.326Z,39.20
2023-08-31T12:38:27.343Z,38.99
2023-08-31T12:39:27.303Z,38.85
2023-08-31T12:40:27.304Z,38.75
2023-08-31T12:41:27.265Z,38.46
2023-08-31T12:42:27.267Z,38.18
2023-08-31T12:43:27.261Z,37.98
2023-08-31T12:44:27.487Z,37.88
2023-08-31T12:45:27.223Z,37.73
2023-08-31T12:46:27.768Z,37.54
2023-08-31T12:47:27.265Z,37.36
2023-08-31T12:48:27.185Z,37.13
2023-08-31T12:49:27.217Z,36.92
2023-08-31T12:50:27.139Z,36.76
2023-08-31T12:51:27.381Z,36.63
2023-08-31T12:52:27.123Z,36.45